sensor_id;sensor_type;location;lat;lon;timestamp;P1;durP1;ratioP1;P2;durP2;ratioP2
63943;SDS011;50121;51.218;7.664;2023-01-26T00:01:19;41.92;;;14.75;;
63943;SDS011;50121;51.218;7.664;2023-01-26T00:03:47;39.20;;;14.18;;
63943;SDS011;50121;51.218;7.664;2023-01-26T00:06:16;33.03;;;13.57;;
63943;SDS011;50121;51.218;7.664;2023-01-26T00:08:45;30.10;;;12.25;;
63943;SDS011;50121;51.218;7.664;2023-01-26T00:11:14;31.77;;;11.82;;
63943;SDS011;50121;51.218;7.664;2023-01-26T00:13:42;31.90;;;13.40;;
63943;SDS011;50121;51.218;7.664;2023-01-26T00:16:11;30.38;;;12.50;;
63943;SDS011;50121;51.218;7.664;2023-01-26T00:18:39;34.05;;;12.82;;
63943;SDS011;50121;51.218;7.664;2023-01-26T00:21:07;31.98;;;12.05;;
63943;SDS011;50121;51.218;7.664;2023-01-26T00:23:35;28.17;;;12.18;;
63943;SDS011;50121;51.218;7.664;2023-01-26T00:26:04;37.17;;;13.48;;
63943;SDS011;50121;51.218;7.664;2023-01-26T00:28:32;32.60;;;13.48;;
63943;SDS011;50121;51.218;7.664;2023-01-26T00:33:30;33.33;;;12.82;;
63943;SDS011;50121;51.218;7.664;2023-01-26T00:35:58;35.42;;;13.38;;
63943;SDS011;50121;51.218;7.664;2023-01-26T00:38:26;35.65;;;13.98;;
63943;SDS011;50121;51.218;7.664;2023-01-26T00:40:53;43.08;;;13.82;;
63943;SDS011;50121;51.218;7.664;2023-01-26T00:43:21;34.38;;;13.80;;
63943;SDS011;50121;51.218;7.664;2023-01-26T00:45:50;36.00;;;13.27;;
63943;SDS011;50121;51.218;7.664;2023-01-26T00:48:18;33.60;;;12.75;;
63943;SDS011;50121;51.218;7.664;2023-01-26T00:50:51;33.63;;;12.60;;
63943;SDS011;50121;51.218;7.664;2023-01-26T00:53:19;31.08;;;12.23;;
63943;SDS011;50121;51.218;7.664;2023-01-26T00:55:46;31.10;;;12.93;;
63943;SDS011;50121;51.218;7.664;2023-01-26T00:58:14;32.67;;;12.75;;
63943;SDS011;50121;51.218;7.664;2023-01-26T01:00:41;38.15;;;13.45;;
63943;SDS011;50121;51.218;7.664;2023-01-26T01:03:09;45.17;;;14.70;;
63943;SDS011;50121;51.218;7.664;2023-01-26T01:05:36;39.08;;;13.05;;
63943;SDS011;50121;51.218;7.664;2023-01-26T01:08:04;37.35;;;13.27;;
63943;SDS011;50121;51.218;7.664;2023-01-26T01:10:33;34.55;;;12.18;;
63943;SDS011;50121;51.218;7.664;2023-01-26T01:13:01;32.67;;;12.98;;
63943;SDS011;50121;51.218;7.664;2023-01-26T01:15:28;34.80;;;13.07;;
63943;SDS011;50121;51.218;7.664;2023-01-26T01:17:56;35.47;;;13.18;;
63943;SDS011;50121;51.218;7.664;2023-01-26T01:20:23;34.83;;;13.10;;
63943;SDS011;50121;51.218;7.664;2023-01-26T01:22:51;33.33;;;13.23;;
63943;SDS011;50121;51.218;7.664;2023-01-26T01:25:18;41.03;;;12.90;;
63943;SDS011;50121;51.218;7.664;2023-01-26T01:27:46;39.58;;;12.77;;
63943;SDS011;50121;51.218;7.664;2023-01-26T01:30:13;44.65;;;14.10;;
63943;SDS011;50121;51.218;7.664;2023-01-26T01:32:42;36.88;;;13.07;;
63943;SDS011;50121;51.218;7.664;2023-01-26T01:35:10;36.67;;;13.52;;
63943;SDS011;50121;51.218;7.664;2023-01-26T01:37:37;38.95;;;13.88;;
63943;SDS011;50121;51.218;7.664;2023-01-26T01:40:05;48.78;;;13.27;;
63943;SDS011;50121;51.218;7.664;2023-01-26T01:42:33;37.80;;;14.27;;
63943;SDS011;50121;51.218;7.664;2023-01-26T01:47:47;80.00;;;12.93;;
63943;SDS011;50121;51.218;7.664;2023-01-26T01:50:15;34.78;;;12.75;;
63943;SDS011;50121;51.218;7.664;2023-01-26T01:52:43;37.03;;;14.27;;
63943;SDS011;50121;51.218;7.664;2023-01-26T01:55:13;41.53;;;13.07;;
63943;SDS011;50121;51.218;7.664;2023-01-26T01:57:42;40.10;;;13.85;;
63943;SDS011;50121;51.218;7.664;2023-01-26T02:00:13;40.40;;;19.50;;
63943;SDS011;50121;51.218;7.664;2023-01-26T02:02:45;37.90;;;13.13;;
63943;SDS011;50121;51.218;7.664;2023-01-26T02:05:34;49.72;;;14.38;;
63943;SDS011;50121;51.218;7.664;2023-01-26T02:08:03;39.28;;;13.48;;
63943;SDS011;50121;51.218;7.664;2023-01-26T02:10:31;34.78;;;12.90;;
63943;SDS011;50121;51.218;7.664;2023-01-26T02:12:59;36.00;;;12.35;;
63943;SDS011;50121;51.218;7.664;2023-01-26T02:15:27;37.90;;;13.45;;
63943;SDS011;50121;51.218;7.664;2023-01-26T02:17:55;36.58;;;12.73;;
63943;SDS011;50121;51.218;7.664;2023-01-26T02:25:47;38.75;;;13.90;;
63943;SDS011;50121;51.218;7.664;2023-01-26T02:28:23;39.20;;;12.93;;
63943;SDS011;50121;51.218;7.664;2023-01-26T02:30:51;37.47;;;14.20;;
63943;SDS011;50121;51.218;7.664;2023-01-26T02:33:21;38.08;;;13.68;;
63943;SDS011;50121;51.218;7.664;2023-01-26T02:35:51;46.63;;;15.30;;
63943;SDS011;50121;51.218;7.664;2023-01-26T02:38:19;39.47;;;14.43;;
63943;SDS011;50121;51.218;7.664;2023-01-26T02:43:17;47.80;;;14.88;;
63943;SDS011;50121;51.218;7.664;2023-01-26T02:45:44;39.38;;;13.80;;
63943;SDS011;50121;51.218;7.664;2023-01-26T02:48:12;36.13;;;14.52;;
63943;SDS011;50121;51.218;7.664;2023-01-26T02:51:02;37.85;;;14.15;;
63943;SDS011;50121;51.218;7.664;2023-01-26T02:53:30;35.42;;;13.48;;
63943;SDS011;50121;51.218;7.664;2023-01-26T02:55:58;33.88;;;13.80;;
63943;SDS011;50121;51.218;7.664;2023-01-26T02:58:26;35.55;;;13.32;;
63943;SDS011;50121;51.218;7.664;2023-01-26T03:00:53;37.88;;;13.27;;
63943;SDS011;50121;51.218;7.664;2023-01-26T03:03:22;45.28;;;14.02;;
63943;SDS011;50121;51.218;7.664;2023-01-26T03:05:50;39.17;;;14.15;;
63943;SDS011;50121;51.218;7.664;2023-01-26T03:08:18;34.90;;;14.45;;
63943;SDS011;50121;51.218;7.664;2023-01-26T03:10:46;34.67;;;13.73;;
63943;SDS011;50121;51.218;7.664;2023-01-26T03:13:13;39.58;;;13.85;;
63943;SDS011;50121;51.218;7.664;2023-01-26T03:15:41;38.22;;;13.02;;
63943;SDS011;50121;51.218;7.664;2023-01-26T03:18:14;32.72;;;12.57;;
63943;SDS011;50121;51.218;7.664;2023-01-26T03:21:02;42.58;;;14.68;;
63943;SDS011;50121;51.218;7.664;2023-01-26T03:23:48;40.63;;;14.60;;
63943;SDS011;50121;51.218;7.664;2023-01-26T03:26:35;38.67;;;14.57;;
63943;SDS011;50121;51.218;7.664;2023-01-26T03:29:21;39.47;;;14.13;;
63943;SDS011;50121;51.218;7.664;2023-01-26T03:31:50;39.35;;;13.48;;
63943;SDS011;50121;51.218;7.664;2023-01-26T03:34:18;39.55;;;13.98;;
63943;SDS011;50121;51.218;7.664;2023-01-26T03:36:47;37.33;;;13.57;;
63943;SDS011;50121;51.218;7.664;2023-01-26T03:39:16;39.42;;;14.50;;
63943;SDS011;50121;51.218;7.664;2023-01-26T03:42:03;38.75;;;13.80;;
63943;SDS011;50121;51.218;7.664;2023-01-26T03:44:49;35.75;;;13.95;;
63943;SDS011;50121;51.218;7.664;2023-01-26T03:47:38;37.53;;;14.50;;
63943;SDS011;50121;51.218;7.664;2023-01-26T03:50:25;36.42;;;13.95;;
63943;SDS011;50121;51.218;7.664;2023-01-26T03:53:12;37.65;;;14.52;;
63943;SDS011;50121;51.218;7.664;2023-01-26T03:55:58;40.97;;;13.32;;
63943;SDS011;50121;51.218;7.664;2023-01-26T03:58:53;39.22;;;13.70;;
63943;SDS011;50121;51.218;7.664;2023-01-26T04:03:56;35.97;;;12.60;;
63943;SDS011;50121;51.218;7.664;2023-01-26T04:06:46;35.35;;;12.75;;
63943;SDS011;50121;51.218;7.664;2023-01-26T04:09:34;37.10;;;12.98;;
63943;SDS011;50121;51.218;7.664;2023-01-26T04:12:02;37.53;;;12.68;;
63943;SDS011;50121;51.218;7.664;2023-01-26T04:14:33;35.95;;;12.90;;
63943;SDS011;50121;51.218;7.664;2023-01-26T04:17:23;33.85;;;11.82;;
63943;SDS011;50121;51.218;7.664;2023-01-26T04:20:09;36.08;;;12.82;;
63943;SDS011;50121;51.218;7.664;2023-01-26T04:22:55;33.50;;;13.02;;
63943;SDS011;50121;51.218;7.664;2023-01-26T04:25:23;38.70;;;12.50;;
63943;SDS011;50121;51.218;7.664;2023-01-26T04:27:51;35.60;;;13.30;;
63943;SDS011;50121;51.218;7.664;2023-01-26T04:30:18;40.35;;;13.27;;
63943;SDS011;50121;51.218;7.664;2023-01-26T04:32:46;40.03;;;12.88;;
63943;SDS011;50121;51.218;7.664;2023-01-26T04:35:15;43.85;;;14.45;;
63943;SDS011;50121;51.218;7.664;2023-01-26T04:37:42;34.45;;;13.98;;
63943;SDS011;50121;51.218;7.664;2023-01-26T04:40:10;46.80;;;14.70;;
63943;SDS011;50121;51.218;7.664;2023-01-26T04:42:39;46.53;;;15.02;;
63943;SDS011;50121;51.218;7.664;2023-01-26T04:45:08;48.08;;;14.93;;
63943;SDS011;50121;51.218;7.664;2023-01-26T04:47:37;42.42;;;14.15;;
63943;SDS011;50121;51.218;7.664;2023-01-26T04:50:05;40.33;;;14.07;;
63943;SDS011;50121;51.218;7.664;2023-01-26T04:52:32;38.40;;;13.55;;
63943;SDS011;50121;51.218;7.664;2023-01-26T04:55:00;39.28;;;14.45;;
63943;SDS011;50121;51.218;7.664;2023-01-26T04:57:30;36.33;;;13.10;;
63943;SDS011;50121;51.218;7.664;2023-01-26T05:00:00;39.70;;;13.18;;
63943;SDS011;50121;51.218;7.664;2023-01-26T05:02:27;34.88;;;12.90;;
63943;SDS011;50121;51.218;7.664;2023-01-26T05:04:55;35.38;;;12.18;;
63943;SDS011;50121;51.218;7.664;2023-01-26T05:07:23;35.97;;;12.82;;
63943;SDS011;50121;51.218;7.664;2023-01-26T05:09:51;35.65;;;12.27;;
63943;SDS011;50121;51.218;7.664;2023-01-26T05:12:47;26.77;;;11.48;;
63943;SDS011;50121;51.218;7.664;2023-01-26T05:15:24;28.17;;;11.10;;
63943;SDS011;50121;51.218;7.664;2023-01-26T05:18:13;31.42;;;11.70;;
63943;SDS011;50121;51.218;7.664;2023-01-26T05:20:59;30.65;;;11.07;;
63943;SDS011;50121;51.218;7.664;2023-01-26T05:23:34;31.50;;;11.43;;
63943;SDS011;50121;51.218;7.664;2023-01-26T05:26:20;28.30;;;11.63;;
63943;SDS011;50121;51.218;7.664;2023-01-26T05:29:01;25.88;;;11.15;;
63943;SDS011;50121;51.218;7.664;2023-01-26T05:31:30;29.83;;;12.55;;
63943;SDS011;50121;51.218;7.664;2023-01-26T05:33:57;29.33;;;11.90;;
63943;SDS011;50121;51.218;7.664;2023-01-26T05:36:25;30.15;;;11.75;;
63943;SDS011;50121;51.218;7.664;2023-01-26T05:38:52;27.85;;;10.95;;
63943;SDS011;50121;51.218;7.664;2023-01-26T05:41:23;26.55;;;11.52;;
63943;SDS011;50121;51.218;7.664;2023-01-26T05:44:02;26.80;;;10.77;;
63943;SDS011;50121;51.218;7.664;2023-01-26T05:46:50;30.35;;;12.52;;
63943;SDS011;50121;51.218;7.664;2023-01-26T05:49:18;26.35;;;10.43;;
63943;SDS011;50121;51.218;7.664;2023-01-26T05:51:46;24.65;;;9.05;;
63943;SDS011;50121;51.218;7.664;2023-01-26T05:54:14;26.48;;;10.27;;
63943;SDS011;50121;51.218;7.664;2023-01-26T05:56:42;24.95;;;10.60;;
63943;SDS011;50121;51.218;7.664;2023-01-26T05:59:09;23.52;;;10.10;;
63943;SDS011;50121;51.218;7.664;2023-01-26T06:01:37;22.88;;;10.15;;
63943;SDS011;50121;51.218;7.664;2023-01-26T06:04:06;23.05;;;9.30;;
63943;SDS011;50121;51.218;7.664;2023-01-26T06:06:41;18.33;;;9.15;;
63943;SDS011;50121;51.218;7.664;2023-01-26T06:09:35;20.60;;;9.23;;
63943;SDS011;50121;51.218;7.664;2023-01-26T06:12:23;21.02;;;9.25;;
63943;SDS011;50121;51.218;7.664;2023-01-26T06:14:57;22.60;;;10.32;;
63943;SDS011;50121;51.218;7.664;2023-01-26T06:17:37;18.58;;;9.20;;
63943;SDS011;50121;51.218;7.664;2023-01-26T06:20:07;24.58;;;10.57;;
63943;SDS011;50121;51.218;7.664;2023-01-26T06:22:35;24.05;;;10.25;;
63943;SDS011;50121;51.218;7.664;2023-01-26T06:25:03;22.08;;;9.70;;
63943;SDS011;50121;51.218;7.664;2023-01-26T06:27:31;21.02;;;9.57;;
63943;SDS011;50121;51.218;7.664;2023-01-26T06:30:02;19.55;;;9.80;;
63943;SDS011;50121;51.218;7.664;2023-01-26T06:32:31;25.10;;;11.40;;
63943;SDS011;50121;51.218;7.664;2023-01-26T06:34:59;24.45;;;10.93;;
63943;SDS011;50121;51.218;7.664;2023-01-26T06:37:27;22.77;;;10.35;;
63943;SDS011;50121;51.218;7.664;2023-01-26T06:39:56;33.28;;;11.60;;
63943;SDS011;50121;51.218;7.664;2023-01-26T06:42:24;22.00;;;10.25;;
63943;SDS011;50121;51.218;7.664;2023-01-26T06:44:51;24.75;;;11.07;;
63943;SDS011;50121;51.218;7.664;2023-01-26T06:47:19;25.15;;;10.73;;
63943;SDS011;50121;51.218;7.664;2023-01-26T06:49:48;20.42;;;10.73;;
63943;SDS011;50121;51.218;7.664;2023-01-26T06:54:48;25.83;;;12.70;;
63943;SDS011;50121;51.218;7.664;2023-01-26T07:00:08;18.85;;;9.15;;
63943;SDS011;50121;51.218;7.664;2023-01-26T07:02:53;24.85;;;10.95;;
63943;SDS011;50121;51.218;7.664;2023-01-26T07:05:20;22.05;;;9.48;;
63943;SDS011;50121;51.218;7.664;2023-01-26T07:07:48;26.15;;;9.57;;
63943;SDS011;50121;51.218;7.664;2023-01-26T07:10:15;20.67;;;9.75;;
63943;SDS011;50121;51.218;7.664;2023-01-26T07:12:44;25.27;;;10.48;;
63943;SDS011;50121;51.218;7.664;2023-01-26T07:15:11;21.85;;;10.30;;
63943;SDS011;50121;51.218;7.664;2023-01-26T07:17:39;22.50;;;9.73;;
63943;SDS011;50121;51.218;7.664;2023-01-26T07:20:07;20.65;;;9.35;;
63943;SDS011;50121;51.218;7.664;2023-01-26T07:22:35;25.38;;;10.00;;
63943;SDS011;50121;51.218;7.664;2023-01-26T07:25:03;25.77;;;10.20;;
63943;SDS011;50121;51.218;7.664;2023-01-26T07:27:30;20.38;;;9.25;;
63943;SDS011;50121;51.218;7.664;2023-01-26T07:29:58;21.05;;;9.35;;
63943;SDS011;50121;51.218;7.664;2023-01-26T07:32:26;22.15;;;10.13;;
63943;SDS011;50121;51.218;7.664;2023-01-26T07:34:53;23.52;;;9.73;;
63943;SDS011;50121;51.218;7.664;2023-01-26T07:37:21;20.73;;;9.57;;
63943;SDS011;50121;51.218;7.664;2023-01-26T07:39:48;21.23;;;9.85;;
63943;SDS011;50121;51.218;7.664;2023-01-26T07:42:16;20.92;;;9.02;;
63943;SDS011;50121;51.218;7.664;2023-01-26T07:44:47;21.60;;;9.52;;
63943;SDS011;50121;51.218;7.664;2023-01-26T07:47:14;23.00;;;9.52;;
63943;SDS011;50121;51.218;7.664;2023-01-26T07:49:42;18.45;;;10.05;;
63943;SDS011;50121;51.218;7.664;2023-01-26T07:52:09;20.58;;;9.35;;
63943;SDS011;50121;51.218;7.664;2023-01-26T07:54:37;20.00;;;8.95;;
63943;SDS011;50121;51.218;7.664;2023-01-26T07:57:04;14.82;;;7.82;;
63943;SDS011;50121;51.218;7.664;2023-01-26T07:59:35;15.80;;;7.68;;
63943;SDS011;50121;51.218;7.664;2023-01-26T08:02:02;18.42;;;8.43;;
63943;SDS011;50121;51.218;7.664;2023-01-26T08:04:30;16.90;;;8.10;;
63943;SDS011;50121;51.218;7.664;2023-01-26T08:06:57;18.30;;;8.18;;
63943;SDS011;50121;51.218;7.664;2023-01-26T08:09:25;17.75;;;8.52;;
63943;SDS011;50121;51.218;7.664;2023-01-26T08:11:55;17.35;;;8.30;;
63943;SDS011;50121;51.218;7.664;2023-01-26T08:14:24;18.63;;;8.68;;
63943;SDS011;50121;51.218;7.664;2023-01-26T08:17:01;18.38;;;8.52;;
63943;SDS011;50121;51.218;7.664;2023-01-26T08:19:28;17.52;;;8.60;;
63943;SDS011;50121;51.218;7.664;2023-01-26T08:21:56;15.23;;;7.85;;
63943;SDS011;50121;51.218;7.664;2023-01-26T08:24:23;17.92;;;8.40;;
63943;SDS011;50121;51.218;7.664;2023-01-26T08:26:53;18.73;;;8.82;;
63943;SDS011;50121;51.218;7.664;2023-01-26T08:29:21;21.73;;;8.82;;
63943;SDS011;50121;51.218;7.664;2023-01-26T08:31:49;18.92;;;9.20;;
63943;SDS011;50121;51.218;7.664;2023-01-26T08:34:17;22.20;;;9.43;;
63943;SDS011;50121;51.218;7.664;2023-01-26T08:36:47;23.00;;;9.90;;
63943;SDS011;50121;51.218;7.664;2023-01-26T08:39:15;21.77;;;9.90;;
63943;SDS011;50121;51.218;7.664;2023-01-26T08:41:43;23.88;;;10.05;;
63943;SDS011;50121;51.218;7.664;2023-01-26T08:44:10;20.35;;;9.80;;
63943;SDS011;50121;51.218;7.664;2023-01-26T08:46:38;20.75;;;9.73;;
63943;SDS011;50121;51.218;7.664;2023-01-26T08:49:05;23.45;;;10.45;;
63943;SDS011;50121;51.218;7.664;2023-01-26T08:51:33;23.35;;;9.73;;
63943;SDS011;50121;51.218;7.664;2023-01-26T08:54:01;21.10;;;9.10;;
63943;SDS011;50121;51.218;7.664;2023-01-26T08:56:30;19.27;;;8.95;;
63943;SDS011;50121;51.218;7.664;2023-01-26T08:58:58;21.25;;;9.68;;
63943;SDS011;50121;51.218;7.664;2023-01-26T09:01:25;18.88;;;9.10;;
63943;SDS011;50121;51.218;7.664;2023-01-26T09:03:53;26.13;;;10.63;;
63943;SDS011;50121;51.218;7.664;2023-01-26T09:06:21;21.35;;;9.93;;
63943;SDS011;50121;51.218;7.664;2023-01-26T09:08:49;21.08;;;9.20;;
63943;SDS011;50121;51.218;7.664;2023-01-26T09:11:16;23.55;;;8.93;;
63943;SDS011;50121;51.218;7.664;2023-01-26T09:13:44;21.38;;;9.38;;
63943;SDS011;50121;51.218;7.664;2023-01-26T09:16:22;22.95;;;9.60;;
63943;SDS011;50121;51.218;7.664;2023-01-26T09:18:50;21.25;;;9.05;;
63943;SDS011;50121;51.218;7.664;2023-01-26T09:21:18;23.90;;;8.80;;
63943;SDS011;50121;51.218;7.664;2023-01-26T09:23:46;24.02;;;9.75;;
63943;SDS011;50121;51.218;7.664;2023-01-26T09:26:13;22.38;;;10.10;;
63943;SDS011;50121;51.218;7.664;2023-01-26T09:28:41;27.95;;;9.70;;
63943;SDS011;50121;51.218;7.664;2023-01-26T09:31:09;28.88;;;9.25;;
63943;SDS011;50121;51.218;7.664;2023-01-26T09:33:37;23.83;;;10.50;;
63943;SDS011;50121;51.218;7.664;2023-01-26T09:36:05;24.55;;;9.65;;
63943;SDS011;50121;51.218;7.664;2023-01-26T09:38:33;16.95;;;8.95;;
63943;SDS011;50121;51.218;7.664;2023-01-26T09:43:51;21.85;;;10.10;;
63943;SDS011;50121;51.218;7.664;2023-01-26T09:56:59;21.98;;;9.75;;
63943;SDS011;50121;51.218;7.664;2023-01-26T09:59:35;19.95;;;9.40;;
63943;SDS011;50121;51.218;7.664;2023-01-26T10:04:52;17.00;;;8.40;;
63943;SDS011;50121;51.218;7.664;2023-01-26T10:07:27;17.10;;;8.10;;
63943;SDS011;50121;51.218;7.664;2023-01-26T10:09:55;14.07;;;7.32;;
63943;SDS011;50121;51.218;7.664;2023-01-26T10:12:33;15.43;;;8.20;;
63943;SDS011;50121;51.218;7.664;2023-01-26T10:17:33;18.23;;;8.15;;
63943;SDS011;50121;51.218;7.664;2023-01-26T10:20:48;22.15;;;14.02;;
63943;SDS011;50121;51.218;7.664;2023-01-26T10:22:51;15.63;;;8.07;;
63943;SDS011;50121;51.218;7.664;2023-01-26T10:25:21;15.35;;;8.52;;
63943;SDS011;50121;51.218;7.664;2023-01-26T10:30:20;16.30;;;8.32;;
63943;SDS011;50121;51.218;7.664;2023-01-26T10:32:49;14.32;;;7.53;;
63943;SDS011;50121;51.218;7.664;2023-01-26T10:35:22;17.15;;;8.10;;
63943;SDS011;50121;51.218;7.664;2023-01-26T10:37:50;14.63;;;8.27;;
63943;SDS011;50121;51.218;7.664;2023-01-26T10:40:18;16.17;;;8.68;;
63943;SDS011;50121;51.218;7.664;2023-01-26T10:42:57;13.27;;;8.07;;
63943;SDS011;50121;51.218;7.664;2023-01-26T10:45:32;15.18;;;7.88;;
63943;SDS011;50121;51.218;7.664;2023-01-26T10:50:30;15.77;;;9.98;;
63943;SDS011;50121;51.218;7.664;2023-01-26T10:52:59;18.05;;;9.02;;
63943;SDS011;50121;51.218;7.664;2023-01-26T10:55:27;14.63;;;8.25;;
63943;SDS011;50121;51.218;7.664;2023-01-26T10:57:54;15.25;;;8.27;;
63943;SDS011;50121;51.218;7.664;2023-01-26T11:03:32;16.50;;;9.05;;
63943;SDS011;50121;51.218;7.664;2023-01-26T11:05:41;14.70;;;9.10;;
63943;SDS011;50121;51.218;7.664;2023-01-26T11:08:30;18.13;;;9.43;;
63943;SDS011;50121;51.218;7.664;2023-01-26T11:11:00;15.77;;;8.90;;
63943;SDS011;50121;51.218;7.664;2023-01-26T11:13:29;15.90;;;9.05;;
63943;SDS011;50121;51.218;7.664;2023-01-26T11:23:32;18.23;;;9.50;;
63943;SDS011;50121;51.218;7.664;2023-01-26T11:28:58;18.35;;;9.75;;
63943;SDS011;50121;51.218;7.664;2023-01-26T11:34:20;22.70;;;10.32;;
63943;SDS011;50121;51.218;7.664;2023-01-26T11:44:45;21.55;;;10.52;;
63943;SDS011;50121;51.218;7.664;2023-01-26T12:03:22;19.95;;;9.75;;
63943;SDS011;50121;51.218;7.664;2023-01-26T12:05:53;21.90;;;10.25;;
63943;SDS011;50121;51.218;7.664;2023-01-26T12:08:26;18.92;;;10.20;;
63943;SDS011;50121;51.218;7.664;2023-01-26T12:11:02;17.17;;;9.23;;
63943;SDS011;50121;51.218;7.664;2023-01-26T12:16:39;11.88;;;6.88;;
63943;SDS011;50121;51.218;7.664;2023-01-26T12:21:56;15.50;;;7.78;;
63943;SDS011;50121;51.218;7.664;2023-01-26T12:24:32;16.70;;;7.97;;
63943;SDS011;50121;51.218;7.664;2023-01-26T12:27:33;15.10;;;8.15;;
63943;SDS011;50121;51.218;7.664;2023-01-26T12:32:39;14.73;;;7.70;;
63943;SDS011;50121;51.218;7.664;2023-01-26T12:35:09;13.55;;;6.88;;
63943;SDS011;50121;51.218;7.664;2023-01-26T12:46:00;14.98;;;7.95;;
63943;SDS011;50121;51.218;7.664;2023-01-26T12:51:18;16.45;;;8.15;;
63943;SDS011;50121;51.218;7.664;2023-01-26T12:56:26;14.15;;;7.45;;
63943;SDS011;50121;51.218;7.664;2023-01-26T12:58:55;15.05;;;8.73;;
63943;SDS011;50121;51.218;7.664;2023-01-26T13:01:24;12.82;;;7.45;;
63943;SDS011;50121;51.218;7.664;2023-01-26T13:03:55;13.10;;;7.57;;
63943;SDS011;50121;51.218;7.664;2023-01-26T13:06:25;12.48;;;7.70;;
63943;SDS011;50121;51.218;7.664;2023-01-26T13:16:52;12.43;;;7.25;;
63943;SDS011;50121;51.218;7.664;2023-01-26T13:19:33;11.73;;;7.15;;
63943;SDS011;50121;51.218;7.664;2023-01-26T13:22:01;12.88;;;7.47;;
63943;SDS011;50121;51.218;7.664;2023-01-26T13:26:57;11.40;;;7.22;;
63943;SDS011;50121;51.218;7.664;2023-01-26T13:31:54;13.90;;;7.90;;
63943;SDS011;50121;51.218;7.664;2023-01-26T13:34:26;11.13;;;6.90;;
63943;SDS011;50121;51.218;7.664;2023-01-26T13:36:58;12.10;;;7.38;;
63943;SDS011;50121;51.218;7.664;2023-01-26T13:39:30;12.07;;;7.13;;
63943;SDS011;50121;51.218;7.664;2023-01-26T13:42:01;13.25;;;7.22;;
63943;SDS011;50121;51.218;7.664;2023-01-26T13:44:36;11.82;;;7.40;;
63943;SDS011;50121;51.218;7.664;2023-01-26T13:47:06;11.65;;;7.50;;
63943;SDS011;50121;51.218;7.664;2023-01-26T13:52:03;10.52;;;6.68;;
63943;SDS011;50121;51.218;7.664;2023-01-26T13:54:41;9.63;;;6.93;;
63943;SDS011;50121;51.218;7.664;2023-01-26T13:57:10;10.23;;;7.20;;
63943;SDS011;50121;51.218;7.664;2023-01-26T13:59:51;10.55;;;7.00;;
63943;SDS011;50121;51.218;7.664;2023-01-26T14:02:29;13.75;;;6.88;;
63943;SDS011;50121;51.218;7.664;2023-01-26T14:04:58;10.18;;;7.03;;
63943;SDS011;50121;51.218;7.664;2023-01-26T14:07:30;11.02;;;7.20;;
63943;SDS011;50121;51.218;7.664;2023-01-26T14:09:59;11.15;;;7.28;;
63943;SDS011;50121;51.218;7.664;2023-01-26T14:12:29;8.38;;;6.43;;
63943;SDS011;50121;51.218;7.664;2023-01-26T14:14:58;9.35;;;6.05;;
63943;SDS011;50121;51.218;7.664;2023-01-26T14:17:28;8.13;;;5.88;;
63943;SDS011;50121;51.218;7.664;2023-01-26T14:19:56;8.18;;;5.72;;
63943;SDS011;50121;51.218;7.664;2023-01-26T14:22:26;11.32;;;7.18;;
63943;SDS011;50121;51.218;7.664;2023-01-26T14:24:56;8.15;;;6.13;;
63943;SDS011;50121;51.218;7.664;2023-01-26T14:29:58;9.02;;;6.40;;
63943;SDS011;50121;51.218;7.664;2023-01-26T14:32:26;9.52;;;6.70;;
63943;SDS011;50121;51.218;7.664;2023-01-26T14:34:56;9.05;;;6.95;;
63943;SDS011;50121;51.218;7.664;2023-01-26T14:37:25;8.30;;;7.13;;
63943;SDS011;50121;51.218;7.664;2023-01-26T14:42:40;6.63;;;5.35;;
63943;SDS011;50121;51.218;7.664;2023-01-26T14:45:12;7.72;;;5.93;;
63943;SDS011;50121;51.218;7.664;2023-01-26T14:47:40;7.82;;;6.03;;
63943;SDS011;50121;51.218;7.664;2023-01-26T14:50:14;8.25;;;6.45;;
63943;SDS011;50121;51.218;7.664;2023-01-26T14:52:46;7.65;;;6.75;;
63943;SDS011;50121;51.218;7.664;2023-01-26T14:57:43;8.45;;;6.70;;
63943;SDS011;50121;51.218;7.664;2023-01-26T15:02:48;7.13;;;6.35;;
63943;SDS011;50121;51.218;7.664;2023-01-26T15:05:17;9.75;;;7.15;;
63943;SDS011;50121;51.218;7.664;2023-01-26T15:07:50;9.25;;;7.13;;
63943;SDS011;50121;51.218;7.664;2023-01-26T15:12:56;8.13;;;7.05;;
63943;SDS011;50121;51.218;7.664;2023-01-26T15:15:28;7.38;;;6.57;;
63943;SDS011;50121;51.218;7.664;2023-01-26T15:18:01;7.28;;;6.25;;
63943;SDS011;50121;51.218;7.664;2023-01-26T15:22:56;7.20;;;6.50;;
63943;SDS011;50121;51.218;7.664;2023-01-26T15:25:25;15.27;;;8.77;;
63943;SDS011;50121;51.218;7.664;2023-01-26T15:27:54;8.55;;;6.55;;
63943;SDS011;50121;51.218;7.664;2023-01-26T15:30:29;9.98;;;7.88;;
63943;SDS011;50121;51.218;7.664;2023-01-26T15:33:03;19.55;;;10.32;;
63943;SDS011;50121;51.218;7.664;2023-01-26T15:35:32;12.70;;;8.32;;
63943;SDS011;50121;51.218;7.664;2023-01-26T15:38:02;7.95;;;6.68;;
63943;SDS011;50121;51.218;7.664;2023-01-26T15:40:29;8.93;;;6.75;;
63943;SDS011;50121;51.218;7.664;2023-01-26T15:43:04;7.70;;;5.93;;
63943;SDS011;50121;51.218;7.664;2023-01-26T15:45:38;8.75;;;6.72;;
63943;SDS011;50121;51.218;7.664;2023-01-26T15:48:06;9.25;;;6.68;;
63943;SDS011;50121;51.218;7.664;2023-01-26T15:50:34;6.75;;;6.05;;
63943;SDS011;50121;51.218;7.664;2023-01-26T15:53:01;7.07;;;6.18;;
63943;SDS011;50121;51.218;7.664;2023-01-26T15:55:30;11.35;;;6.78;;
63943;SDS011;50121;51.218;7.664;2023-01-26T15:57:58;9.68;;;6.63;;
63943;SDS011;50121;51.218;7.664;2023-01-26T16:00:26;12.57;;;6.80;;
63943;SDS011;50121;51.218;7.664;2023-01-26T16:02:54;22.90;;;6.50;;
63943;SDS011;50121;51.218;7.664;2023-01-26T16:05:22;17.88;;;6.88;;
63943;SDS011;50121;51.218;7.664;2023-01-26T16:07:50;67.55;;;8.27;;
63943;SDS011;50121;51.218;7.664;2023-01-26T16:10:18;32.88;;;7.90;;
63943;SDS011;50121;51.218;7.664;2023-01-26T16:12:47;67.35;;;8.52;;
63943;SDS011;50121;51.218;7.664;2023-01-26T16:15:19;69.03;;;9.30;;
63943;SDS011;50121;51.218;7.664;2023-01-26T16:20:17;64.85;;;9.70;;
63943;SDS011;50121;51.218;7.664;2023-01-26T16:22:45;41.65;;;6.38;;
63943;SDS011;50121;51.218;7.664;2023-01-26T16:25:31;56.22;;;6.07;;
63943;SDS011;50121;51.218;7.664;2023-01-26T16:27:58;108.38;;;7.32;;
63943;SDS011;50121;51.218;7.664;2023-01-26T16:30:26;63.20;;;8.38;;
63943;SDS011;50121;51.218;7.664;2023-01-26T16:32:54;92.32;;;8.60;;
63943;SDS011;50121;51.218;7.664;2023-01-26T16:35:22;66.55;;;7.15;;
63943;SDS011;50121;51.218;7.664;2023-01-26T16:37:49;102.53;;;9.23;;
63943;SDS011;50121;51.218;7.664;2023-01-26T16:40:17;57.22;;;8.05;;
63943;SDS011;50121;51.218;7.664;2023-01-26T16:42:47;46.72;;;7.10;;
63943;SDS011;50121;51.218;7.664;2023-01-26T16:45:20;55.85;;;8.80;;
63943;SDS011;50121;51.218;7.664;2023-01-26T16:47:50;82.97;;;7.07;;
63943;SDS011;50121;51.218;7.664;2023-01-26T16:50:24;94.18;;;8.05;;
63943;SDS011;50121;51.218;7.664;2023-01-26T16:52:52;82.43;;;7.30;;
63943;SDS011;50121;51.218;7.664;2023-01-26T16:55:20;88.45;;;7.05;;
63943;SDS011;50121;51.218;7.664;2023-01-26T16:57:49;64.82;;;6.47;;
63943;SDS011;50121;51.218;7.664;2023-01-26T17:00:18;63.75;;;5.93;;
63943;SDS011;50121;51.218;7.664;2023-01-26T17:02:46;90.45;;;6.72;;
63943;SDS011;50121;51.218;7.664;2023-01-26T17:05:16;70.65;;;5.50;;
63943;SDS011;50121;51.218;7.664;2023-01-26T17:07:45;67.10;;;7.90;;
63943;SDS011;50121;51.218;7.664;2023-01-26T17:10:14;78.15;;;6.55;;